Time;durP1;ratioP1;P1;durP2;ratioP2;P2;SDS_P1;SDS_P2;PMS_P1;PMS_P2;Temp;Humidity;BMP_temperature;BMP_pressure;BME280_temperature;BME280_humidity;BME280_pressure;Samples;Min_cycle;Max_cycle;Signal;HPM_P1;HPM_P2
2023/03/24 00:01:51;;;;;;;3.97;1.95;;;;;;;;;;5073246;28;20374;-56
2023/03/24 00:04:17;;;;;;;3.25;1.48;;;;;;;;;;5073232;28;20035;-56
2023/03/24 00:06:43;;;;;;;4.05;1.70;;;;;;;;;;5073494;28;20033;-56
2023/03/24 00:09:09;;;;;;;3.30;1.70;;;;;;;;;;5073091;28;20455;-56
2023/03/24 00:11:35;;;;;;;2.72;1.60;;;;;;;;;;5073466;28;20453;-56
2023/03/24 00:14:02;;;;;;;4.05;1.52;;;;;;;;;;5073454;28;20024;-56
2023/03/24 00:16:28;;;;;;;3.67;1.70;;;;;;;;;;5073240;28;20029;-56
2023/03/24 00:18:55;;;;;;;2.13;1.10;;;;;;;;;;5076865;28;20039;-56
2023/03/24 00:21:23;;;;;;;2.22;1.10;;;;;;;;;;5076343;28;20474;-56
2023/03/24 00:23:49;;;;;;;2.92;1.90;;;;;;;;;;5076536;28;20032;-56
2023/03/24 00:26:16;;;;;;;2.65;1.58;;;;;;;;;;5077108;28;20390;-56
2023/03/24 00:28:44;;;;;;;1.73;1.17;;;;;;;;;;5076663;28;20030;-56
2023/03/24 00:31:13;;;;;;;2.33;1.48;;;;;;;;;;5076274;28;20024;-55
2023/03/24 00:33:40;;;;;;;3.45;1.63;;;;;;;;;;5076921;28;20025;-56
2023/03/24 00:36:06;;;;;;;2.10;1.40;;;;;;;;;;5076294;28;20021;-56
2023/03/24 00:38:33;;;;;;;2.45;1.52;;;;;;;;;;5077042;28;20530;-54
2023/03/24 00:41:00;;;;;;;2.83;1.45;;;;;;;;;;5075980;28;20478;-56
2023/03/24 00:43:27;;;;;;;3.53;1.77;;;;;;;;;;5076472;28;20077;-56
2023/03/24 00:46:00;;;;;;;4.68;1.88;;;;;;;;;;5076511;28;20025;-56
2023/03/24 00:48:27;;;;;;;2.75;1.45;;;;;;;;;;5076413;28;20021;-56
2023/03/24 00:50:53;;;;;;;4.18;1.85;;;;;;;;;;5076672;28;20420;-55
2023/03/24 00:53:22;;;;;;;2.55;1.55;;;;;;;;;;5076065;28;20036;-55
2023/03/24 00:55:48;;;;;;;3.53;1.65;;;;;;;;;;5075994;28;20104;-55
2023/03/24 00:58:20;;;;;;;3.78;1.85;;;;;;;;;;5075927;28;20063;-56
2023/03/24 01:00:47;;;;;;;2.97;1.42;;;;;;;;;;5075818;28;20115;-55
2023/03/24 01:03:13;;;;;;;2.35;1.50;;;;;;;;;;5075558;28;20032;-56
2023/03/24 01:05:40;;;;;;;2.35;1.58;;;;;;;;;;5076449;28;20032;-56
2023/03/24 01:08:06;;;;;;;2.30;1.52;;;;;;;;;;5075808;28;20369;-56
2023/03/24 01:10:34;;;;;;;2.70;1.30;;;;;;;;;;5075728;28;20063;-55
2023/03/24 01:13:01;;;;;;;3.38;1.77;;;;;;;;;;5076022;28;20359;-56
2023/03/24 01:15:32;;;;;;;2.08;1.30;;;;;;;;;;5076648;28;20045;-56
2023/03/24 01:18:01;;;;;;;2.33;1.33;;;;;;;;;;5075598;28;20032;-56
2023/03/24 01:20:31;;;;;;;2.40;1.27;;;;;;;;;;5075462;28;20086;-56
2023/03/24 01:22:57;;;;;;;;;;;;;;;;;;5076752;28;20038;-56
2023/03/24 01:25:24;;;;;;;2.35;1.20;;;;;;;;;;5075537;28;19995;-56
2023/03/24 01:27:51;;;;;;;3.75;1.67;;;;;;;;;;5075519;28;20029;-55
2023/03/24 01:30:19;;;;;;;2.80;1.73;;;;;;;;;;5074673;28;20531;-56
2023/03/24 01:32:45;;;;;;;3.95;2.10;;;;;;;;;;5075167;28;20101;-55
2023/03/24 01:35:11;;;;;;;3.00;1.98;;;;;;;;;;5075253;28;20035;-56
2023/03/24 01:37:38;;;;;;;4.47;1.70;;;;;;;;;;5074945;28;20033;-55
2023/03/24 01:40:08;;;;;;;2.13;1.27;;;;;;;;;;5075042;28;20024;-55
2023/03/24 01:42:34;;;;;;;;;;;;;;;;;;5076030;28;20063;-56
2023/03/24 01:45:01;;;;;;;3.22;1.90;;;;;;;;;;5075111;28;19904;-55
2023/03/24 01:47:27;;;;;;;3.13;1.40;;;;;;;;;;5075474;28;20485;-56
2023/03/24 01:49:54;;;;;;;3.55;1.73;;;;;;;;;;5075247;28;20028;-56
2023/03/24 01:52:23;;;;;;;2.67;1.42;;;;;;;;;;5074935;28;20028;-55
2023/03/24 01:54:55;;;;;;;2.72;1.20;;;;;;;;;;5074854;28;20031;-56
2023/03/24 01:57:24;;;;;;;3.17;1.48;;;;;;;;;;5075361;28;20111;-56
2023/03/24 01:59:53;;;;;;;2.70;1.48;;;;;;;;;;5074682;28;20455;-55
2023/03/24 02:02:20;;;;;;;2.17;1.30;;;;;;;;;;5074765;28;20060;-58
2023/03/24 02:04:52;;;;;;;3.95;2.10;;;;;;;;;;5074603;28;20064;-58
2023/03/24 02:07:42;;;;;;;3.63;1.42;;;;;;;;;;5075130;28;20024;-53
2023/03/24 02:10:13;;;;;;;3.60;1.75;;;;;;;;;;5069222;28;20048;-56
2023/03/24 02:12:41;;;;;;;3.53;1.83;;;;;;;;;;5074576;28;20024;-58
2023/03/24 02:15:07;;;;;;;2.30;1.25;;;;;;;;;;5074714;28;20049;-58
2023/03/24 02:17:39;;;;;;;1.98;1.23;;;;;;;;;;5074667;28;20028;-58
2023/03/24 02:20:10;;;;;;;3.20;1.83;;;;;;;;;;5074350;28;20029;-59
2023/03/24 02:22:54;;;;;;;3.05;1.85;;;;;;;;;;5074854;28;20424;-58
2023/03/24 02:25:30;;;;;;;2.92;1.85;;;;;;;;;;5074323;28;20016;-57
2023/03/24 02:28:08;;;;;;;3.95;2.05;;;;;;;;;;5074130;28;20115;-59
2023/03/24 02:30:40;;;;;;;3.10;1.67;;;;;;;;;;5074810;28;20023;-58
2023/03/24 02:33:15;;;;;;;3.53;1.55;;;;;;;;;;5073998;28;20086;-58
2023/03/24 02:36:10;;;;;;;3.13;1.38;;;;;;;;;;5074140;28;20020;-58
2023/03/24 02:38:45;;;;;;;2.50;1.63;;;;;;;;;;5074406;28;20071;-58
2023/03/24 02:41:11;;;;;;;2.28;1.17;;;;;;;;;;5073726;28;20029;-58
2023/03/24 02:43:37;;;;;;;2.50;1.58;;;;;;;;;;5073785;28;20424;-58
2023/03/24 02:46:22;;;;;;;4.00;1.50;;;;;;;;;;5074076;28;20031;-58
2023/03/24 02:48:48;;;;;;;3.50;1.35;;;;;;;;;;5074006;28;20032;-58
2023/03/24 02:51:18;;;;;;;2.70;1.63;;;;;;;;;;5073948;28;20033;-58
2023/03/24 02:54:01;;;;;;;2.25;1.50;;;;;;;;;;5074229;28;20081;-56
2023/03/24 02:56:39;;;;;;;1.92;0.98;;;;;;;;;;5073968;28;20021;-57
2023/03/24 02:59:07;;;;;;;2.03;1.15;;;;;;;;;;5073389;28;20489;-58
2023/03/24 03:01:44;;;;;;;2.45;1.05;;;;;;;;;;5074455;28;20098;-57
2023/03/24 03:04:16;;;;;;;2.17;1.30;;;;;;;;;;5074375;28;20027;-56
2023/03/24 03:06:44;;;;;;;3.22;1.40;;;;;;;;;;5073879;28;20028;-57
2023/03/24 03:09:11;;;;;;;2.47;1.15;;;;;;;;;;5073731;28;20351;-57
2023/03/24 03:11:38;;;;;;;4.40;1.10;;;;;;;;;;5073682;28;20040;-58
2023/03/24 03:14:09;;;;;;;1.98;1.08;;;;;;;;;;5073597;28;20036;-57
2023/03/24 03:16:42;;;;;;;1.90;1.10;;;;;;;;;;5074011;28;20025;-59
2023/03/24 03:19:16;;;;;;;1.88;1.17;;;;;;;;;;5073789;28;20118;-58
2023/03/24 03:21:43;;;;;;;1.65;1.15;;;;;;;;;;5073617;28;20025;-58
2023/03/24 03:24:14;;;;;;;1.80;0.82;;;;;;;;;;5073305;28;20107;-58
2023/03/24 03:26:42;;;;;;;2.22;1.02;;;;;;;;;;5073936;28;20029;-58
2023/03/24 03:29:11;;;;;;;1.77;1.08;;;;;;;;;;5073789;28;20054;-59
2023/03/24 03:31:40;;;;;;;2.10;1.25;;;;;;;;;;5073659;28;20028;-58
2023/03/24 03:34:26;;;;;;;2.17;1.45;;;;;;;;;;5073980;28;20348;-57
2023/03/24 03:37:00;;;;;;;3.05;1.15;;;;;;;;;;5074034;28;20157;-57
2023/03/24 03:39:30;;;;;;;3.47;0.93;;;;;;;;;;5073674;28;20378;-57
2023/03/24 03:41:57;;;;;;;2.75;1.33;;;;;;;;;;5073345;28;20074;-57
2023/03/24 03:44:23;;;;;;;2.33;1.40;;;;;;;;;;5073838;28;20359;-56
2023/03/24 03:46:49;;;;;;;2.60;1.25;;;;;;;;;;5073912;28;20024;-58
2023/03/24 03:49:15;;;;;;;2.67;1.17;;;;;;;;;;5073285;28;20549;-56
2023/03/24 03:51:41;;;;;;;2.38;1.25;;;;;;;;;;5073767;28;20455;-56
2023/03/24 03:54:09;;;;;;;2.28;1.33;;;;;;;;;;5076782;28;20462;-56
2023/03/24 03:56:36;;;;;;;2.28;1.15;;;;;;;;;;5077160;28;20063;-56
2023/03/24 03:59:02;;;;;;;2.17;1.08;;;;;;;;;;5077008;28;20033;-53
2023/03/24 04:01:30;;;;;;;2.47;1.50;;;;;;;;;;5077102;28;20362;-55
2023/03/24 04:03:58;;;;;;;1.95;1.20;;;;;;;;;;5076863;28;20386;-55
2023/03/24 04:06:44;;;;;;;2.33;1.27;;;;;;;;;;5076880;28;20025;-56
2023/03/24 04:09:28;;;;;;;2.40;1.05;;;;;;;;;;5076780;28;20047;-56
2023/03/24 04:11:57;;;;;;;2.67;1.55;;;;;;;;;;5076962;28;20032;-56
2023/03/24 04:14:32;;;;;;;1.40;0.90;;;;;;;;;;5076763;28;20052;-54
2023/03/24 04:17:10;;;;;;;2.03;1.15;;;;;;;;;;5076683;28;20063;-57
2023/03/24 04:19:45;;;;;;;2.47;1.40;;;;;;;;;;5076558;28;20107;-57
2023/03/24 04:22:23;;;;;;;2.20;1.20;;;;;;;;;;5076891;28;20036;-55
2023/03/24 04:24:53;;;;;;;2.05;1.13;;;;;;;;;;5077326;28;20035;-56
2023/03/24 04:27:26;;;;;;;1.65;1.08;;;;;;;;;;5076421;28;20021;-57
2023/03/24 04:29:57;;;;;;;2.63;1.30;;;;;;;;;;5076475;28;20060;-56
2023/03/24 04:32:45;;;;;;;2.17;0.95;;;;;;;;;;5076483;28;20029;-57
2023/03/24 04:35:13;;;;;;;2.15;1.23;;;;;;;;;;5076279;28;20037;-57
2023/03/24 04:37:39;;;;;;;3.45;1.55;;;;;;;;;;5076964;28;20037;-57
2023/03/24 04:40:10;;;;;;;1.73;0.85;;;;;;;;;;5076001;28;20367;-57
2023/03/24 04:42:37;;;;;;;2.60;1.42;;;;;;;;;;5076452;28;20032;-57
2023/03/24 04:45:05;;;;;;;2.33;1.35;;;;;;;;;;5076427;28;20024;-57
2023/03/24 04:47:34;;;;;;;2.42;1.23;;;;;;;;;;5076229;28;20486;-57
2023/03/24 04:50:05;;;;;;;3.08;1.75;;;;;;;;;;5076008;28;20481;-56
2023/03/24 04:52:31;;;;;;;2.10;1.00;;;;;;;;;;5076665;28;20029;-57
2023/03/24 04:54:57;;;;;;;1.92;1.00;;;;;;;;;;5076749;28;20040;-57
2023/03/24 04:57:23;;;;;;;4.50;1.27;;;;;;;;;;5076164;28;20024;-54
2023/03/24 04:59:49;;;;;;;2.58;1.02;;;;;;;;;;5075726;28;20032;-57
2023/03/24 05:02:15;;;;;;;1.83;1.10;;;;;;;;;;5075942;28;20029;-57
2023/03/24 05:04:41;;;;;;;2.33;1.23;;;;;;;;;;5076038;28;20104;-56
2023/03/24 05:07:07;;;;;;;5.78;1.33;;;;;;;;;;5076508;28;20035;-57
2023/03/24 05:09:33;;;;;;;2.10;0.95;;;;;;;;;;5075861;28;20028;-56
2023/03/24 05:11:59;;;;;;;2.03;1.02;;;;;;;;;;5075982;28;20056;-57
2023/03/24 05:14:25;;;;;;;2.03;1.27;;;;;;;;;;5076067;28;20044;-57
2023/03/24 05:16:51;;;;;;;1.63;0.80;;;;;;;;;;5075411;28;20060;-56
2023/03/24 05:19:17;;;;;;;2.22;1.35;;;;;;;;;;5075529;28;20055;-57
2023/03/24 05:21:43;;;;;;;3.00;1.33;;;;;;;;;;5075257;28;20474;-56
2023/03/24 05:24:09;;;;;;;2.63;1.13;;;;;;;;;;5075243;28;20024;-56
2023/03/24 05:26:35;;;;;;;1.88;1.08;;;;;;;;;;5075784;28;20434;-56
2023/03/24 05:29:02;;;;;;;2.13;1.10;;;;;;;;;;5076214;28;20085;-57
2023/03/24 05:31:28;;;;;;;2.00;1.40;;;;;;;;;;5075136;28;20032;-56
2023/03/24 05:33:54;;;;;;;2.50;1.30;;;;;;;;;;5075517;28;20025;-56
2023/03/24 05:36:20;;;;;;;2.92;1.73;;;;;;;;;;5075857;28;20079;-55
2023/03/24 05:38:46;;;;;;;2.28;1.45;;;;;;;;;;5075569;28;20032;-56
2023/03/24 05:41:12;;;;;;;2.55;1.60;;;;;;;;;;5074993;28;20359;-56
2023/03/24 05:43:38;;;;;;;3.33;1.70;;;;;;;;;;5075354;28;20107;-56
2023/03/24 05:46:04;;;;;;;1.90;1.17;;;;;;;;;;5075396;28;20111;-55
2023/03/24 05:48:30;;;;;;;4.13;2.28;;;;;;;;;;5075206;28;20025;-56
2023/03/24 05:50:56;;;;;;;2.58;1.52;;;;;;;;;;5075398;28;20029;-56
2023/03/24 05:53:22;;;;;;;2.90;1.98;;;;;;;;;;5074888;28;20090;-56
2023/03/24 05:55:48;;;;;;;4.07;1.90;;;;;;;;;;5075152;28;20099;-57
2023/03/24 05:58:14;;;;;;;2.97;1.85;;;;;;;;;;5075237;28;20036;-57
2023/03/24 06:00:40;;;;;;;2.55;1.40;;;;;;;;;;5074615;28;20120;-57
2023/03/24 06:03:06;;;;;;;2.80;1.70;;;;;;;;;;5073428;28;20052;-56
2023/03/24 06:05:32;;;;;;;3.08;1.80;;;;;;;;;;5075245;28;20483;-57
2023/03/24 06:08:00;;;;;;;2.33;1.23;;;;;;;;;;5074750;28;20095;-57
2023/03/24 06:10:26;;;;;;;3.85;1.88;;;;;;;;;;5074694;28;20478;-56
2023/03/24 06:12:53;;;;;;;3.97;2.00;;;;;;;;;;5074533;28;20081;-56
2023/03/24 06:15:19;;;;;;;2.13;1.33;;;;;;;;;;5074324;28;20048;-56
2023/03/24 06:17:46;;;;;;;2.75;1.70;;;;;;;;;;5074452;28;20071;-56
2023/03/24 06:20:14;;;;;;;2.80;1.58;;;;;;;;;;5074234;28;20032;-57
2023/03/24 06:22:41;;;;;;;3.63;1.90;;;;;;;;;;5074560;28;20379;-57
2023/03/24 06:25:08;;;;;;;3.75;1.60;;;;;;;;;;5074870;28;20082;-57
2023/03/24 06:27:34;;;;;;;2.60;2.10;;;;;;;;;;5074809;28;20032;-57
2023/03/24 06:30:00;;;;;;;3.65;2.13;;;;;;;;;;5074448;28;20386;-57
2023/03/24 06:32:26;;;;;;;2.08;1.23;;;;;;;;;;5073762;28;20032;-57
2023/03/24 06:34:52;;;;;;;7.10;1.50;;;;;;;;;;5074820;28;20075;-56
2023/03/24 06:37:18;;;;;;;4.47;1.35;;;;;;;;;;5074109;28;20025;-57
2023/03/24 06:39:45;;;;;;;3.90;2.13;;;;;;;;;;5074019;28;20036;-56
2023/03/24 06:42:11;;;;;;;3.25;2.08;;;;;;;;;;5074609;28;20036;-57
2023/03/24 06:44:37;;;;;;;3.65;1.80;;;;;;;;;;5074323;28;20097;-57
2023/03/24 06:47:03;;;;;;;2.90;1.65;;;;;;;;;;5074345;28;20024;-57
2023/03/24 06:49:29;;;;;;;2.70;1.30;;;;;;;;;;5074450;28;20025;-57
2023/03/24 06:51:55;;;;;;;3.67;2.28;;;;;;;;;;5074769;28;20033;-57
2023/03/24 06:54:21;;;;;;;3.10;1.95;;;;;;;;;;5073737;28;20023;-57
2023/03/24 06:56:47;;;;;;;4.07;2.08;;;;;;;;;;5074234;28;20028;-57
2023/03/24 06:59:16;;;;;;;3.60;2.08;;;;;;;;;;5073872;28;20032;-56
2023/03/24 07:01:42;;;;;;;6.55;1.75;;;;;;;;;;5074313;28;20367;-56
2023/03/24 07:04:08;;;;;;;2.45;1.95;;;;;;;;;;5074365;28;20431;-55
2023/03/24 07:06:34;;;;;;;2.20;1.60;;;;;;;;;;5074057;28;20060;-56
2023/03/24 07:09:00;;;;;;;3.05;1.80;;;;;;;;;;5073457;28;20028;-56
2023/03/24 07:11:26;;;;;;;5.35;1.70;;;;;;;;;;5073695;28;20033;-57
2023/03/24 07:13:52;;;;;;;2.92;1.75;;;;;;;;;;5074030;28;20024;-57
2023/03/24 07:16:18;;;;;;;4.93;2.25;;;;;;;;;;5073672;28;20025;-57
2023/03/24 07:18:44;;;;;;;2.50;1.85;;;;;;;;;;5073529;28;20052;-57
2023/03/24 07:21:10;;;;;;;3.17;2.13;;;;;;;;;;5072388;28;20078;-56
2023/03/24 07:23:36;;;;;;;5.05;2.10;;;;;;;;;;5073777;28;20033;-57
2023/03/24 07:26:02;;;;;;;6.55;2.47;;;;;;;;;;5073892;28;20027;-57
2023/03/24 07:28:28;;;;;;;2.58;1.92;;;;;;;;;;5077001;28;20046;-59
2023/03/24 07:30:54;;;;;;;2.70;1.98;;;;;;;;;;5078024;28;20037;-57
2023/03/24 07:33:20;;;;;;;2.75;1.83;;;;;;;;;;5077552;28;20359;-57
2023/03/24 07:35:46;;;;;;;2.85;1.85;;;;;;;;;;5078466;28;20123;-56
2023/03/24 07:38:12;;;;;;;3.65;2.33;;;;;;;;;;5077466;28;20173;-57
2023/03/24 07:40:38;;;;;;;3.45;2.28;;;;;;;;;;5077417;28;20063;-57
2023/03/24 07:43:05;;;;;;;4.93;2.13;;;;;;;;;;5077417;28;20071;-58
2023/03/24 07:45:31;;;;;;;4.30;2.80;;;;;;;;;;5077393;28;20037;-58
2023/03/24 07:48:00;;;;;;;4.13;2.05;;;;;;;;;;5077126;28;20029;-57
2023/03/24 07:50:27;;;;;;;3.13;2.28;;;;;;;;;;5077260;28;20111;-59
2023/03/24 07:52:53;;;;;;;4.47;2.22;;;;;;;;;;5077545;28;20035;-58
2023/03/24 07:55:19;;;;;;;4.00;2.53;;;;;;;;;;5077851;28;20442;-58
2023/03/24 07:57:46;;;;;;;4.35;2.70;;;;;;;;;;5077580;28;20443;-57
2023/03/24 08:00:18;;;;;;;5.00;2.10;;;;;;;;;;5077014;28;20032;-58
2023/03/24 08:02:45;;;;;;;7.30;2.90;;;;;;;;;;5077820;28;20041;-59
2023/03/24 08:05:13;;;;;;;5.80;3.28;;;;;;;;;;5077758;28;20039;-57
2023/03/24 08:07:41;;;;;;;4.07;2.03;;;;;;;;;;5076718;28;20451;-58
2023/03/24 08:10:08;;;;;;;3.90;2.53;;;;;;;;;;5076878;28;20068;-59
2023/03/24 08:12:34;;;;;;;4.28;3.03;;;;;;;;;;5076875;28;20368;-58
2023/03/24 08:15:00;;;;;;;3.85;2.50;;;;;;;;;;5077087;28;20055;-56
2023/03/24 08:17:26;;;;;;;5.07;2.53;;;;;;;;;;5077188;28;20020;-58
2023/03/24 08:19:52;;;;;;;3.60;2.40;;;;;;;;;;5076766;28;20480;-58
2023/03/24 08:22:18;;;;;;;2.90;1.73;;;;;;;;;;5077216;28;20442;-55
2023/03/24 08:24:44;;;;;;;3.78;3.03;;;;;;;;;;5076957;28;20036;-58
2023/03/24 08:27:10;;;;;;;8.23;3.00;;;;;;;;;;5076924;28;20119;-58
2023/03/24 08:29:36;;;;;;;3.30;2.53;;;;;;;;;;5076825;28;20505;-57
2023/03/24 08:32:02;;;;;;;4.88;2.55;;;;;;;;;;5076398;28;20028;-58
2023/03/24 08:34:28;;;;;;;4.70;2.78;;;;;;;;;;5076512;28;20409;-57
2023/03/24 08:36:54;;;;;;;3.85;2.35;;;;;;;;;;5076513;28;20163;-59
2023/03/24 08:39:21;;;;;;;3.60;1.80;;;;;;;;;;5075741;28;20378;-59
2023/03/24 08:41:49;;;;;;;2.88;2.15;;;;;;;;;;5076412;28;20040;-59
2023/03/24 08:44:15;;;;;;;3.92;2.60;;;;;;;;;;5076226;28;20386;-58
2023/03/24 08:46:41;;;;;;;3.35;2.30;;;;;;;;;;5077141;28;20405;-58
2023/03/24 08:49:07;;;;;;;4.32;2.30;;;;;;;;;;5076483;28;20025;-56
2023/03/24 08:51:33;;;;;;;3.70;2.80;;;;;;;;;;5076101;28;20473;-58
2023/03/24 08:54:00;;;;;;;2.55;1.65;;;;;;;;;;5076668;28;20127;-58
2023/03/24 08:56:27;;;;;;;3.42;1.70;;;;;;;;;;5076385;28;20029;-57
2023/03/24 08:58:53;;;;;;;3.83;1.75;;;;;;;;;;5075702;28;20033;-57
2023/03/24 09:01:20;;;;;;;5.32;1.73;;;;;;;;;;5075998;28;20037;-57
2023/03/24 09:03:46;;;;;;;2.67;1.80;;;;;;;;;;5075894;28;20032;-57
2023/03/24 09:06:12;;;;;;;2.70;1.50;;;;;;;;;;5076526;28;20033;-57
2023/03/24 09:08:38;;;;;;;4.40;2.38;;;;;;;;;;5075849;28;20029;-57
2023/03/24 09:11:05;;;;;;;3.78;2.13;;;;;;;;;;5076403;28;20374;-58
2023/03/24 09:13:31;;;;;;;4.13;2.35;;;;;;;;;;5075786;28;20036;-57
2023/03/24 09:15:58;;;;;;;3.40;2.10;;;;;;;;;;5075509;28;20045;-57
2023/03/24 09:18:24;;;;;;;2.95;2.13;;;;;;;;;;5075846;28;20025;-56
2023/03/24 09:20:51;;;;;;;10.07;2.65;;;;;;;;;;5075535;28;20099;-56
2023/03/24 09:23:17;;;;;;;3.88;2.65;;;;;;;;;;5075771;28;20115;-58
2023/03/24 09:25:43;;;;;;;3.53;1.95;;;;;;;;;;5076048;28;20033;-57
2023/03/24 09:28:09;;;;;;;3.08;2.13;;;;;;;;;;5075531;28;20055;-59
2023/03/24 09:30:35;;;;;;;3.63;2.10;;;;;;;;;;5075409;28;20037;-58
2023/03/24 09:33:02;;;;;;;3.33;2.40;;;;;;;;;;5075191;28;20386;-57
2023/03/24 09:35:28;;;;;;;3.20;1.92;;;;;;;;;;5075953;28;20401;-57
2023/03/24 09:37:54;;;;;;;5.30;2.40;;;;;;;;;;5075511;28;20040;-58
2023/03/24 09:40:25;;;;;;;2.95;2.33;;;;;;;;;;5074737;28;20478;-57
2023/03/24 09:42:55;;;;;;;3.63;2.53;;;;;;;;;;5075362;28;20427;-57
2023/03/24 09:45:21;;;;;;;3.50;2.17;;;;;;;;;;5075560;28;20370;-58
2023/03/24 09:47:50;;;;;;;2.78;2.17;;;;;;;;;;5075027;28;20021;-58
2023/03/24 09:50:32;;;;;;;3.25;1.90;;;;;;;;;;5073996;28;20029;-58
2023/03/24 09:53:04;;;;;;;3.72;2.00;;;;;;;;;;5074686;28;20471;-58
2023/03/24 09:55:30;;;;;;;2.50;1.67;;;;;;;;;;5074879;28;20163;-58
2023/03/24 09:58:03;;;;;;;3.53;1.95;;;;;;;;;;5074890;28;20056;-55
2023/03/24 10:00:31;;;;;;;2.40;1.58;;;;;;;;;;5075072;28;20029;-56
2023/03/24 10:02:59;;;;;;;3.03;1.70;;;;;;;;;;5075060;28;20099;-58
2023/03/24 10:05:36;;;;;;;4.60;2.22;;;;;;;;;;5074686;28;20461;-58
2023/03/24 10:08:18;;;;;;;3.00;1.40;;;;;;;;;;5074644;28;20021;-58
2023/03/24 10:10:54;;;;;;;3.00;1.75;;;;;;;;;;5075171;28;20043;-58
2023/03/24 10:13:44;;;;;;;3.13;1.85;;;;;;;;;;5075218;28;20473;-58
2023/03/24 10:16:14;;;;;;;3.25;1.50;;;;;;;;;;5075508;28;20056;-58
2023/03/24 10:18:43;;;;;;;2.28;1.30;;;;;;;;;;5075084;28;20028;-57
2023/03/24 10:21:16;;;;;;;2.83;1.65;;;;;;;;;;5074682;28;20056;-58
2023/03/24 10:24:00;;;;;;;2.10;1.17;;;;;;;;;;5074905;28;20035;-56
2023/03/24 10:26:38;;;;;;;1.60;1.00;;;;;;;;;;5074671;28;20081;-57
2023/03/24 10:29:15;;;;;;;1.77;1.10;;;;;;;;;;5074226;28;20032;-57
2023/03/24 10:31:43;;;;;;;2.13;1.20;;;;;;;;;;5074244;28;20468;-56
2023/03/24 10:34:11;;;;;;;1.70;1.08;;;;;;;;;;5075083;28;20358;-58
2023/03/24 10:36:38;;;;;;;2.85;1.10;;;;;;;;;;5074148;28;20025;-57
2023/03/24 10:39:04;;;;;;;1.75;1.00;;;;;;;;;;5073982;28;20025;-58
2023/03/24 10:41:31;;;;;;;1.55;0.82;;;;;;;;;;5074100;28;20032;-56
2023/03/24 10:43:59;;;;;;;1.40;0.52;;;;;;;;;;5073879;28;20526;-57
2023/03/24 10:46:26;;;;;;;1.17;0.50;;;;;;;;;;5074418;28;20059;-58
2023/03/24 10:48:54;;;;;;;2.08;0.82;;;;;;;;;;5074282;28;20074;-57
2023/03/24 10:51:23;;;;;;;1.20;0.60;;;;;;;;;;5073796;28;20421;-57
2023/03/24 10:53:49;;;;;;;1.17;0.50;;;;;;;;;;5074499;28;20366;-56
2023/03/24 10:56:16;;;;;;;1.10;0.60;;;;;;;;;;5074445;28;20123;-57
2023/03/24 10:58:43;;;;;;;1.45;0.68;;;;;;;;;;5074420;28;20482;-55
2023/03/24 11:01:21;;;;;;;1.38;0.70;;;;;;;;;;5074150;28;20032;-55
2023/03/24 11:03:48;;;;;;;1.42;0.80;;;;;;;;;;5073736;28;20025;-57
2023/03/24 11:06:17;;;;;;;5.40;3.10;;;;;;;;;;5073881;28;20033;-57
2023/03/24 11:08:43;;;;;;;1.23;0.60;;;;;;;;;;5074572;28;20336;-56
2023/03/24 11:11:29;;;;;;;1.02;0.50;;;;;;;;;;5074039;28;20054;-57
2023/03/24 11:13:56;;;;;;;1.98;0.80;;;;;;;;;;5073838;28;20028;-57
2023/03/24 11:16:27;;;;;;;2.92;0.82;;;;;;;;;;5073760;28;20029;-55
2023/03/24 11:18:52;;;;;;;;;;;;;;;;;;5074662;28;20032;-56
2023/03/24 11:21:20;;;;;;;1.02;0.60;;;;;;;;;;5073422;28;19912;-57
2023/03/24 11:23:46;;;;;;;1.30;0.68;;;;;;;;;;5074124;28;20029;-57
2023/03/24 11:26:11;;;;;;;2.17;1.02;;;;;;;;;;5074217;28;20094;-56
2023/03/24 11:28:57;;;;;;;1.33;0.60;;;;;;;;;;5073549;28;20082;-54
2023/03/24 11:31:31;;;;;;;1.27;0.60;;;;;;;;;;5074052;28;20028;-56
2023/03/24 11:34:02;;;;;;;1.27;0.63;;;;;;;;;;5073649;28;20024;-57
2023/03/24 11:36:34;;;;;;;0.95;0.47;;;;;;;;;;5073932;28;20024;-57
2023/03/24 11:39:19;;;;;;;1.30;0.70;;;;;;;;;;5073626;28;20466;-56
2023/03/24 11:42:03;;;;;;;1.17;0.55;;;;;;;;;;5073429;28;20033;-56
2023/03/24 11:44:32;;;;;;;1.95;0.68;;;;;;;;;;5073464;28;20025;-57
2023/03/24 11:47:00;;;;;;;1.27;0.55;;;;;;;;;;5073717;28;20020;-55
2023/03/24 11:49:29;;;;;;;1.42;0.50;;;;;;;;;;5073691;28;20025;-58
2023/03/24 11:51:55;;;;;;;1.02;0.45;;;;;;;;;;5073274;28;20071;-58
2023/03/24 11:54:23;;;;;;;1.15;0.50;;;;;;;;;;5073602;28;20059;-56
2023/03/24 11:56:54;;;;;;;0.90;0.50;;;;;;;;;;5073656;28;20020;-58
2023/03/24 11:59:36;;;;;;;1.67;0.60;;;;;;;;;;5073340;28;20032;-57
2023/03/24 12:02:11;;;;;;;0.80;0.30;;;;;;;;;;5073426;28;20039;-56
2023/03/24 12:04:56;;;;;;;0.80;0.40;;;;;;;;;;5073350;28;20108;-58
2023/03/24 12:07:34;;;;;;;2.78;0.50;;;;;;;;;;5073601;28;20096;-56
2023/03/24 12:10:18;;;;;;;0.90;0.60;;;;;;;;;;5073895;28;20032;-58
2023/03/24 12:13:03;;;;;;;0.30;0.10;;;;;;;;;;5073777;28;20377;-58
2023/03/24 12:15:35;;;;;;;0.65;0.38;;;;;;;;;;5077419;28;20410;-58
2023/03/24 12:18:10;;;;;;;0.52;0.25;;;;;;;;;;5077181;28;20020;-58
2023/03/24 12:20:38;;;;;;;0.40;0.22;;;;;;;;;;5076989;28;20466;-58
2023/03/24 12:23:05;;;;;;;0.63;0.20;;;;;;;;;;5077228;28;20450;-59
2023/03/24 12:25:50;;;;;;;1.48;0.38;;;;;;;;;;5077353;28;20086;-58
2023/03/24 12:28:39;;;;;;;0.77;0.30;;;;;;;;;;5076618;28;20024;-59
2023/03/24 12:31:18;;;;;;;0.82;0.40;;;;;;;;;;5071024;28;20373;-58
2023/03/24 12:33:47;;;;;;;0.68;0.32;;;;;;;;;;5077246;28;20091;-59
2023/03/24 12:36:48;;;;;;;0.40;0.20;;;;;;;;;;5076824;28;20532;-59
2023/03/24 12:39:19;;;;;;;1.42;0.30;;;;;;;;;;5034038;28;20030;-59
2023/03/24 12:41:45;;;;;;;;;;;;;;;;;;5069330;28;20177;-59
2023/03/24 12:44:34;;;;;;;1.08;0.30;;;;;;;;;;5076816;28;19955;-58
2023/03/24 12:47:27;;;;;;;0.80;0.28;;;;;;;;;;5076743;28;20033;-59
2023/03/24 12:50:04;;;;;;;0.32;0.17;;;;;;;;;;5076491;28;20041;-59
2023/03/24 12:52:42;;;;;;;0.60;0.20;;;;;;;;;;5076802;28;20028;-59
2023/03/24 12:55:25;;;;;;;0.40;0.15;;;;;;;;;;5076370;28;20416;-58
2023/03/24 12:57:56;;;;;;;0.70;0.30;;;;;;;;;;5076587;28;20024;-59
2023/03/24 13:00:25;;;;;;;1.63;0.30;;;;;;;;;;5076399;28;20063;-59
2023/03/24 13:02:52;;;;;;;0.93;0.40;;;;;;;;;;5076004;28;20047;-59
2023/03/24 13:05:21;;;;;;;0.85;0.30;;;;;;;;;;5076604;28;20310;-58
2023/03/24 13:07:52;;;;;;;1.05;0.30;;;;;;;;;;5075874;28;20111;-59
2023/03/24 13:10:24;;;;;;;0.28;0.13;;;;;;;;;;5076731;28;20039;-59
2023/03/24 13:12:50;;;;;;;0.80;0.30;;;;;;;;;;5075752;28;20025;-59
2023/03/24 13:15:30;;;;;;;0.50;0.20;;;;;;;;;;5076266;28;20136;-59
2023/03/24 13:17:59;;;;;;;0.50;0.20;;;;;;;;;;5076108;28;20024;-59
2023/03/24 13:20:26;;;;;;;0.60;0.20;;;;;;;;;;5075519;28;20032;-59
2023/03/24 13:22:52;;;;;;;0.80;0.35;;;;;;;;;;5075404;28;20078;-59
2023/03/24 13:25:31;;;;;;;0.73;0.20;;;;;;;;;;5075203;28;20024;-59
2023/03/24 13:27:59;;;;;;;1.17;0.43;;;;;;;;;;5075760;28;20027;-59
2023/03/24 13:30:32;;;;;;;0.63;0.20;;;;;;;;;;5075523;28;20028;-58
2023/03/24 13:33:01;;;;;;;0.85;0.30;;;;;;;;;;5075507;28;20021;-59
2023/03/24 13:35:32;;;;;;;0.47;0.20;;;;;;;;;;5075772;28;20074;-59
2023/03/24 13:38:05;;;;;;;1.05;0.50;;;;;;;;;;5075334;28;20036;-58
2023/03/24 13:40:31;;;;;;;0.80;0.30;;;;;;;;;;5075227;28;20436;-59
2023/03/24 13:42:57;;;;;;;0.80;0.30;;;;;;;;;;5075462;28;20067;-59
2023/03/24 13:45:25;;;;;;;1.30;0.45;;;;;;;;;;5075522;28;20455;-59
2023/03/24 13:48:06;;;;;;;0.85;0.38;;;;;;;;;;5075179;28;20025;-58
2023/03/24 13:50:32;;;;;;;;;;;;;;;;;;5075433;28;20028;-59
2023/03/24 13:53:04;;;;;;;0.90;0.32;;;;;;;;;;5075012;28;19927;-59
2023/03/24 13:55:35;;;;;;;0.98;0.40;;;;;;;;;;5075615;28;20025;-59
2023/03/24 13:58:09;;;;;;;2.65;0.68;;;;;;;;;;5075117;28;20467;-59
2023/03/24 14:00:55;;;;;;;1.10;0.50;;;;;;;;;;5075278;28;20029;-59
2023/03/24 14:03:40;;;;;;;0.75;0.40;;;;;;;;;;5067822;28;20044;-58
2023/03/24 14:06:10;;;;;;;1.08;0.50;;;;;;;;;;5075506;28;20035;-58
2023/03/24 14:08:39;;;;;;;0.88;0.35;;;;;;;;;;5074639;28;20028;-58
2023/03/24 14:11:05;;;;;;;0.80;0.35;;;;;;;;;;5074366;28;20031;-58
2023/03/24 14:13:35;;;;;;;0.75;0.30;;;;;;;;;;5074488;28;20366;-57
2023/03/24 14:16:21;;;;;;;1.15;0.38;;;;;;;;;;5074185;28;20044;-58
2023/03/24 14:18:47;;;;;;;0.70;0.15;;;;;;;;;;5074953;28;20036;-58
2023/03/24 14:21:13;;;;;;;1.38;0.38;;;;;;;;;;5074765;28;20038;-58
2023/03/24 14:23:44;;;;;;;0.70;0.28;;;;;;;;;;5074934;28;20461;-58
2023/03/24 14:26:19;;;;;;;1.70;0.30;;;;;;;;;;5074913;28;20344;-58
2023/03/24 14:28:46;;;;;;;0.43;0.20;;;;;;;;;;5074363;28;20485;-58
2023/03/24 14:31:14;;;;;;;1.38;0.68;;;;;;;;;;5074108;28;20050;-58
2023/03/24 14:33:42;;;;;;;0.50;0.28;;;;;;;;;;5074233;28;20028;-58
2023/03/24 14:36:13;;;;;;;1.88;0.52;;;;;;;;;;5074191;28;20070;-58
2023/03/24 14:38:42;;;;;;;0.70;0.30;;;;;;;;;;5074517;28;20024;-58
2023/03/24 14:41:12;;;;;;;0.68;0.30;;;;;;;;;;5074537;28;20035;-58
2023/03/24 14:43:40;;;;;;;2.85;0.60;;;;;;;;;;5074491;28;20052;-58
2023/03/24 14:46:19;;;;;;;0.32;0.13;;;;;;;;;;5074495;28;20387;-58
2023/03/24 14:48:48;;;;;;;0.70;0.40;;;;;;;;;;5074562;28;20398;-58
2023/03/24 14:51:26;;;;;;;0.45;0.20;;;;;;;;;;5073922;28;20370;-58
2023/03/24 14:53:56;;;;;;;0.88;0.30;;;;;;;;;;5073695;28;20021;-58
2023/03/24 14:56:23;;;;;;;0.10;0.10;;;;;;;;;;5074576;28;20107;-58
2023/03/24 14:58:54;;;;;;;0.47;0.20;;;;;;;;;;5073846;28;20027;-58
2023/03/24 15:01:21;;;;;;;0.47;0.28;;;;;;;;;;5074763;28;20030;-57